createdAt,value
2017-10-17T00:00:53.387Z,32.42
2017-10-17T00:01:53.414Z,32.61
2017-10-17T00:02:53.441Z,32.70
2017-10-17T00:03:53.469Z,32.70
2017-10-17T00:04:53.497Z,32.42
2017-10-17T00:05:53.523Z,31.45
2017-10-17T00:06:53.551Z,31.18
2017-10-17T00:07:53.579Z,31.28
2017-10-17T00:08:53.606Z,31.37
2017-10-17T00:09:53.633Z,31.47
2017-10-17T00:10:53.661Z,31.09
2017-10-17T00:11:53.692Z,31.56
2017-10-17T00:12:53.715Z,31.95
2017-10-17T00:13:53.740Z,32.50
2017-10-17T00:14:53.768Z,32.03
2017-10-17T00:15:53.796Z,31.93
2017-10-17T00:16:53.823Z,32.21
2017-10-17T00:17:53.852Z,32.88
2017-10-17T00:18:53.877Z,32.99
2017-10-17T00:19:53.905Z,33.18
2017-10-17T00:20:53.931Z,32.90
2017-10-17T00:21:53.958Z,32.88
2017-10-17T00:22:53.985Z,32.80
2017-10-17T00:23:54.012Z,32.42
2017-10-17T00:24:54.042Z,32.80
2017-10-17T00:25:54.066Z,32.80
2017-10-17T00:26:54.093Z,33.73
2017-10-17T00:27:54.121Z,34.03
2017-10-17T00:28:54.148Z,33.45
2017-10-17T00:29:54.173Z,33.92
2017-10-17T00:30:54.201Z,34.02
2017-10-17T00:31:54.228Z,34.30
2017-10-17T00:32:54.256Z,34.21
2017-10-17T00:33:54.281Z,33.94
2017-10-17T00:34:54.308Z,33.84
2017-10-17T00:35:54.336Z,33.94
2017-10-17T00:36:54.365Z,33.75
2017-10-17T00:37:54.389Z,33.09
2017-10-17T00:38:54.417Z,32.32
2017-10-17T00:39:54.443Z,31.95
2017-10-17T00:40:54.471Z,32.23
2017-10-17T00:41:54.495Z,31.47
2017-10-17T00:42:54.523Z,32.14
2017-10-17T00:43:54.551Z,31.56
2017-10-17T00:44:54.577Z,31.47
2017-10-17T00:45:54.604Z,30.99
2017-10-17T00:46:54.630Z,30.99
2017-10-17T00:47:54.658Z,30.71
2017-10-17T00:48:54.685Z,30.54
2017-10-17T00:49:54.710Z,30.43
2017-10-17T00:50:54.737Z,30.62
2017-10-17T00:51:54.765Z,30.71
2017-10-17T00:52:54.791Z,30.99
2017-10-17T00:53:54.819Z,31.56
2017-10-17T00:54:54.844Z,30.90
2017-10-17T00:55:54.872Z,31.28
2017-10-17T00:56:54.898Z,31.28
2017-10-17T00:57:54.925Z,30.99
2017-10-17T00:58:54.952Z,30.99
2017-10-17T00:59:54.978Z,31.18
2017-10-17T01:00:55.006Z,30.99
2017-10-17T01:01:55.032Z,30.90
2017-10-17T01:02:55.060Z,30.33
2017-10-17T01:04:00.245Z,29.57
2017-10-17T01:04:55.113Z,28.90
2017-10-17T01:05:55.149Z,29.09
2017-10-17T01:06:55.167Z,28.90
2017-10-17T01:07:55.193Z,29.38
2017-10-17T01:09:00.230Z,27.95
2017-10-17T01:09:55.247Z,26.81
2017-10-17T01:10:55.275Z,26.90
2017-10-17T01:11:55.301Z,26.35
2017-10-17T01:12:55.328Z,26.25
2017-10-17T01:14:01.215Z,26.73
2017-10-17T01:14:55.381Z,26.35
2017-10-17T01:15:55.409Z,25.96
2017-10-17T01:17:01.247Z,25.67
2017-10-17T01:17:55.462Z,25.67
2017-10-17T01:18:55.489Z,25.48
2017-10-17T01:19:55.516Z,24.34
2017-10-17T01:20:55.546Z,23.96
2017-10-17T01:21:55.577Z,23.96
2017-10-17T01:22:55.597Z,23.29
2017-10-17T01:23:55.623Z,22.91
2017-10-17T01:24:55.651Z,22.53
2017-10-17T01:25:55.677Z,22.72
2017-10-17T01:26:55.705Z,21.58
2017-10-17T01:27:55.732Z,21.48
2017-10-17T01:28:55.759Z,21.01
2017-10-17T01:29:55.785Z,21.20
2017-10-17T01:30:55.813Z,20.73
2017-10-17T01:31:55.839Z,20.63
2017-10-17T01:32:55.866Z,21.20
2017-10-17T01:33:55.893Z,20.25
2017-10-17T01:34:55.920Z,22.53
2017-10-17T01:35:55.947Z,23.29
2017-10-17T01:36:55.975Z,24.72
2017-10-17T01:37:56.001Z,25.20
2017-10-17T01:38:56.028Z,23.94
2017-10-17T01:39:59.110Z,24.13
2017-10-17T01:40:56.083Z,23.75
2017-10-17T01:41:56.109Z,23.85
2017-10-17T01:42:56.136Z,24.23
2017-10-17T01:43:56.162Z,24.23
2017-10-17T01:44:56.191Z,23.94
2017-10-17T01:45:56.216Z,23.66
2017-10-17T01:46:56.248Z,23.85
2017-10-17T01:47:56.270Z,23.38
2017-10-17T01:48:56.297Z,23.00
2017-10-17T01:49:56.324Z,23.38
2017-10-17T01:50:59.407Z,22.71
2017-10-17T01:51:56.380Z,22.52
2017-10-17T01:52:56.405Z,22.42
2017-10-17T01:53:56.430Z,22.52
2017-10-17T01:54:56.458Z,23.28
2017-10-17T01:55:56.485Z,23.66
2017-10-17T01:56:56.511Z,24.13
2017-10-17T01:57:56.538Z,23.28
2017-10-17T01:58:56.565Z,23.19
2017-10-17T01:59:56.591Z,23.38
2017-10-17T02:00:56.618Z,23.47
2017-10-17T02:01:56.645Z,24.71
2017-10-17T02:02:56.670Z,24.71
2017-10-17T02:03:56.698Z,24.99
2017-10-17T02:04:56.725Z,25.46
2017-10-17T02:05:56.751Z,25.37
2017-10-17T02:06:56.777Z,25.37
2017-10-17T02:07:56.804Z,25.36
2017-10-17T02:09:02.291Z,25.07
2017-10-17T02:09:56.856Z,25.26
2017-10-17T02:10:56.883Z,25.45
2017-10-17T02:11:56.909Z,25.55
2017-10-17T02:12:56.937Z,25.45
2017-10-17T02:13:56.963Z,25.55
2017-10-17T02:14:56.989Z,26.21
2017-10-17T02:15:57.019Z,26.21
2017-10-17T02:16:57.042Z,26.31
2017-10-17T02:18:02.278Z,25.84
2017-10-17T02:18:57.095Z,25.94
2017-10-17T02:19:57.122Z,25.56
2017-10-17T02:20:57.148Z,25.85
2017-10-17T02:21:57.173Z,25.46
2017-10-17T02:22:57.199Z,24.99
2017-10-17T02:23:57.226Z,24.61
2017-10-17T02:24:57.253Z,24.61
2017-10-17T02:25:57.278Z,24.33
2017-10-17T02:26:57.305Z,24.61
2017-10-17T02:27:57.331Z,24.90
2017-10-17T02:28:57.357Z,24.71
2017-10-17T02:29:57.383Z,24.71
2017-10-17T02:30:57.410Z,23.57
2017-10-17T02:31:57.437Z,23.58
2017-10-17T02:32:57.464Z,23.58
2017-10-17T02:34:03.299Z,22.90
2017-10-17T02:34:57.516Z,22.44
2017-10-17T02:35:57.548Z,22.44
2017-10-17T02:36:57.569Z,23.29
2017-10-17T02:37:57.595Z,23.10
2017-10-17T02:39:00.627Z,22.80
2017-10-17T02:39:57.648Z,23.48
2017-10-17T02:40:57.674Z,23.66
2017-10-17T02:41:57.701Z,24.33
2017-10-17T02:42:57.727Z,24.71
2017-10-17T02:43:57.754Z,25.46
2017-10-17T02:44:57.781Z,26.23
2017-10-17T02:45:57.805Z,26.23
2017-10-17T02:46:57.834Z,26.31
2017-10-17T02:47:57.862Z,26.88
2017-10-17T02:48:57.887Z,26.69
2017-10-17T02:49:57.913Z,27.36
2017-10-17T02:50:57.940Z,27.26
2017-10-17T02:51:57.966Z,26.59
2017-10-17T02:52:58.001Z,26.12
2017-10-17T02:53:58.020Z,25.75
2017-10-17T02:54:58.052Z,25.37
2017-10-17T02:55:58.098Z,24.90
2017-10-17T02:57:01.105Z,24.33
2017-10-17T02:57:58.125Z,23.66
2017-10-17T02:58:58.151Z,24.23
2017-10-17T02:59:58.179Z,23.85
2017-10-17T03:00:58.205Z,24.71
2017-10-17T03:01:58.235Z,24.80
2017-10-17T03:02:58.258Z,25.56
2017-10-17T03:03:58.287Z,25.18
2017-10-17T03:04:58.312Z,25.65
2017-10-17T03:05:58.342Z,25.85
2017-10-17T03:06:58.364Z,25.75
2017-10-17T03:07:58.390Z,26.23
2017-10-17T03:08:58.417Z,26.32
2017-10-17T03:09:58.443Z,26.70
2017-10-17T03:10:58.469Z,26.61
2017-10-17T03:11:58.497Z,26.23
2017-10-17T03:12:58.523Z,25.85
2017-10-17T03:13:58.550Z,25.18
2017-10-17T03:14:58.576Z,24.99
2017-10-17T03:15:58.602Z,24.71
2017-10-17T03:16:58.629Z,25.09
2017-10-17T03:17:58.655Z,25.37
2017-10-17T03:18:58.681Z,25.56
2017-10-17T03:19:58.710Z,26.04
2017-10-17T03:20:58.735Z,25.94
2017-10-17T03:21:58.760Z,27.07
2017-10-17T03:22:58.788Z,27.07
2017-10-17T03:23:58.817Z,26.59
2017-10-17T03:24:58.841Z,26.31
2017-10-17T03:25:58.870Z,26.50
2017-10-17T03:26:58.893Z,26.69
2017-10-17T03:27:58.920Z,26.78
2017-10-17T03:28:58.946Z,27.26
2017-10-17T03:29:58.972Z,26.97
2017-10-17T03:30:59.001Z,26.88
2017-10-17T03:31:59.025Z,27.07
2017-10-17T03:32:59.052Z,26.97
2017-10-17T03:33:59.078Z,27.26
2017-10-17T03:34:59.103Z,27.36
2017-10-17T03:35:59.130Z,27.36
2017-10-17T03:36:59.156Z,26.78
2017-10-17T03:37:59.182Z,26.97
2017-10-17T03:38:59.209Z,26.78
2017-10-17T03:39:59.235Z,26.50
2017-10-17T03:40:59.262Z,26.40
2017-10-17T03:41:59.287Z,26.31
2017-10-17T03:42:59.313Z,25.54
2017-10-17T03:43:59.340Z,25.36
2017-10-17T03:44:59.365Z,25.07
2017-10-17T03:45:59.391Z,24.60
2017-10-17T03:46:59.417Z,22.70
2017-10-17T03:47:59.443Z,22.60
2017-10-17T03:48:59.470Z,22.70
2017-10-17T03:49:59.495Z,23.08
2017-10-17T03:50:59.521Z,23.46
2017-10-17T03:51:59.547Z,21.56
2017-10-17T03:52:59.573Z,21.28
2017-10-17T03:53:59.598Z,21.28
2017-10-17T03:55:02.630Z,20.70
2017-10-17T03:55:59.650Z,19.76
2017-10-17T03:56:59.677Z,18.72
2017-10-17T03:57:59.706Z,18.24
2017-10-17T03:58:59.728Z,18.53
2017-10-17T03:59:59.755Z,18.52
2017-10-17T04:00:59.780Z,17.68
2017-10-17T04:01:59.805Z,16.72
2017-10-17T04:02:59.832Z,17.20
2017-10-17T04:03:59.858Z,17.47
2017-10-17T04:04:59.884Z,17.38
2017-10-17T04:05:59.909Z,17.47
2017-10-17T04:06:59.935Z,17.38
2017-10-17T04:07:59.961Z,16.24
2017-10-17T04:08:59.988Z,15.67
2017-10-17T04:10:00.013Z,14.34
2017-10-17T04:11:00.039Z,14.43
2017-10-17T04:12:00.065Z,15.67
2017-10-17T04:13:03.147Z,16.05
2017-10-17T04:14:00.116Z,16.62
2017-10-17T04:15:00.142Z,15.00
2017-10-17T04:16:00.171Z,14.43
2017-10-17T04:17:00.194Z,14.43
2017-10-17T04:18:00.219Z,15.39
2017-10-17T04:19:00.245Z,16.14
2017-10-17T04:20:00.272Z,15.00
2017-10-17T04:21:00.299Z,14.34
2017-10-17T04:22:00.323Z,14.34
2017-10-17T04:23:00.350Z,13.87
2017-10-17T04:24:00.376Z,13.29
2017-10-17T04:25:00.401Z,13.96
2017-10-17T04:26:00.427Z,13.87
2017-10-17T04:27:00.452Z,14.43
2017-10-17T04:28:00.479Z,14.15
2017-10-17T04:29:00.505Z,14.53
2017-10-17T04:30:00.529Z,14.34
2017-10-17T04:31:00.556Z,13.68
2017-10-17T04:32:00.589Z,13.20
2017-10-17T04:33:00.607Z,13.68
2017-10-17T04:34:00.632Z,14.15
2017-10-17T04:35:00.658Z,13.87
2017-10-17T04:36:00.684Z,13.48
2017-10-17T04:37:00.710Z,13.20
2017-10-17T04:38:00.738Z,13.58
2017-10-17T04:39:00.762Z,13.77
2017-10-17T04:40:00.789Z,13.29
2017-10-17T04:41:00.813Z,13.39
2017-10-17T04:42:00.868Z,13.48
2017-10-17T04:43:00.864Z,13.96
2017-10-17T04:44:00.890Z,14.34
2017-10-17T04:45:00.916Z,14.53
2017-10-17T04:46:00.940Z,14.43
2017-10-17T04:47:00.966Z,15.10
2017-10-17T04:48:00.994Z,15.10
2017-10-17T04:49:01.018Z,14.43
2017-10-17T04:50:01.043Z,13.87
2017-10-17T04:51:01.068Z,14.25
2017-10-17T04:52:01.094Z,14.53
2017-10-17T04:53:01.121Z,14.43
2017-10-17T04:54:01.144Z,13.77
2017-10-17T04:55:01.171Z,14.62
2017-10-17T04:56:01.196Z,14.25
2017-10-17T04:57:01.222Z,14.43
2017-10-17T04:58:01.364Z,14.25
2017-10-17T04:59:01.298Z,13.68
2017-10-17T05:00:01.301Z,13.77
2017-10-17T05:01:01.325Z,13.96
2017-10-17T05:02:01.350Z,13.58
2017-10-17T05:03:01.379Z,13.58
2017-10-17T05:04:01.400Z,13.39
2017-10-17T05:05:01.442Z,13.77
2017-10-17T05:06:04.456Z,14.53
2017-10-17T05:07:01.476Z,14.15
2017-10-17T05:08:01.503Z,12.82
2017-10-17T05:09:01.528Z,12.82
2017-10-17T05:10:01.554Z,12.73
2017-10-17T05:11:01.579Z,12.16
2017-10-17T05:12:01.604Z,12.35
2017-10-17T05:13:01.629Z,11.40
2017-10-17T05:14:01.654Z,11.22
2017-10-17T05:15:01.680Z,10.83
2017-10-17T05:16:01.706Z,10.46
2017-10-17T05:17:01.731Z,10.55
2017-10-17T05:18:01.757Z,11.02
2017-10-17T05:19:01.783Z,10.55
2017-10-17T05:20:01.808Z,10.45
2017-10-17T05:21:01.837Z,10.55
2017-10-17T05:22:01.859Z,10.08
2017-10-17T05:23:01.885Z,9.98
2017-10-17T05:24:01.912Z,10.46
2017-10-17T05:25:01.938Z,10.36
2017-10-17T05:26:01.962Z,10.45
2017-10-17T05:27:01.989Z,10.55
2017-10-17T05:28:02.015Z,11.21
2017-10-17T05:29:02.041Z,11.40
2017-10-17T05:30:02.066Z,11.30
2017-10-17T05:31:02.093Z,11.50
2017-10-17T05:32:02.119Z,12.54
2017-10-17T05:33:02.146Z,13.21
2017-10-17T05:34:02.171Z,13.40
2017-10-17T05:35:02.197Z,13.11
2017-10-17T05:36:02.223Z,13.30
2017-10-17T05:37:02.249Z,14.17
2017-10-17T05:38:02.281Z,14.63
2017-10-17T05:39:02.301Z,14.44
2017-10-17T05:40:02.328Z,14.25
2017-10-17T05:41:02.355Z,13.30
2017-10-17T05:42:02.379Z,12.92
2017-10-17T05:43:02.406Z,12.73
2017-10-17T05:44:02.432Z,12.82
2017-10-17T05:45:02.459Z,13.11
2017-10-17T05:46:02.484Z,13.40
2017-10-17T05:47:02.512Z,14.15
2017-10-17T05:48:02.537Z,14.06
2017-10-17T05:49:02.567Z,14.54
2017-10-17T05:50:02.607Z,14.45
2017-10-17T05:51:02.617Z,14.26
2017-10-17T05:52:02.643Z,13.88
2017-10-17T05:53:02.670Z,14.26
2017-10-17T05:54:02.695Z,14.36
2017-10-17T05:55:02.722Z,14.26
2017-10-17T05:56:02.748Z,14.45
2017-10-17T05:57:02.777Z,14.55
2017-10-17T05:58:02.799Z,14.55
2017-10-17T05:59:02.826Z,14.56
2017-10-17T06:00:02.854Z,14.37
2017-10-17T06:01:02.880Z,14.47
2017-10-17T06:02:02.906Z,14.37
2017-10-17T06:03:02.932Z,14.08
2017-10-17T06:04:02.964Z,14.09
2017-10-17T06:05:02.985Z,14.47
2017-10-17T06:06:03.013Z,14.37
2017-10-17T06:07:03.038Z,14.00
2017-10-17T06:08:03.066Z,13.53
2017-10-17T06:09:03.092Z,14.18
2017-10-17T06:10:03.130Z,13.90
2017-10-17T06:11:03.145Z,14.09
2017-10-17T06:12:03.175Z,13.71
2017-10-17T06:13:03.200Z,13.62
2017-10-17T06:14:03.245Z,13.42
2017-10-17T06:15:03.252Z,13.33
2017-10-17T06:16:03.286Z,13.90
2017-10-17T06:17:03.312Z,14.00
2017-10-17T06:18:03.333Z,13.71
2017-10-17T06:19:03.360Z,14.29
2017-10-17T06:20:03.387Z,13.63
2017-10-17T06:21:03.415Z,12.68
2017-10-17T06:22:03.441Z,12.30
2017-10-17T06:23:03.469Z,12.11
2017-10-17T06:24:03.496Z,11.54
2017-10-17T06:25:03.538Z,12.21
2017-10-17T06:26:03.551Z,11.25
2017-10-17T06:27:03.578Z,11.16
2017-10-17T06:28:03.606Z,10.30
2017-10-17T06:29:03.634Z,10.02
2017-10-17T06:30:03.661Z,9.92
2017-10-17T06:31:03.688Z,9.64
2017-10-17T06:32:03.716Z,9.26
2017-10-17T06:33:03.745Z,9.16
2017-10-17T06:34:03.772Z,9.07
2017-10-17T06:35:03.801Z,8.69
2017-10-17T06:36:03.831Z,8.31
2017-10-17T06:37:03.859Z,8.40
2017-10-17T06:38:03.885Z,8.40
2017-10-17T06:39:03.913Z,8.12
2017-10-17T06:40:03.943Z,8.03
2017-10-17T06:41:03.971Z,7.54
2017-10-17T06:42:03.999Z,7.93
2017-10-17T06:48:45.750Z,7.92
2017-10-17T06:49:45.757Z,7.92
2017-10-17T06:50:45.786Z,8.12
2017-10-17T06:51:45.817Z,7.93
2017-10-17T06:52:45.846Z,8.22
2017-10-17T06:53:45.876Z,7.83
2017-10-17T06:54:45.905Z,8.03
2017-10-17T06:55:45.937Z,8.03
2017-10-17T06:56:45.965Z,8.31
2017-10-17T06:57:45.996Z,7.93
2017-10-17T06:58:46.026Z,7.55
2017-10-17T06:59:46.057Z,7.45
2017-10-17T07:00:46.088Z,7.36
2017-10-17T07:01:46.118Z,8.22
2017-10-17T07:02:46.148Z,8.13
2017-10-17T07:03:46.179Z,8.51
2017-10-17T07:04:46.210Z,7.75
2017-10-17T07:05:46.241Z,7.27
2017-10-17T07:06:46.273Z,7.37
2017-10-17T07:07:46.304Z,7.46
2017-10-17T07:08:46.336Z,7.37
2017-10-17T07:09:46.367Z,7.94
2017-10-17T07:10:46.398Z,7.75
2017-10-17T07:11:46.430Z,7.08
2017-10-17T07:12:46.462Z,7.27
2017-10-17T07:13:46.493Z,7.27
2017-10-17T07:14:46.525Z,7.46
2017-10-17T07:15:46.557Z,7.17
2017-10-17T07:16:46.593Z,7.65
2017-10-17T07:17:46.630Z,7.27
2017-10-17T07:18:46.655Z,7.84
2017-10-17T07:19:46.687Z,8.61
2017-10-17T07:20:46.719Z,8.32
2017-10-17T07:21:46.751Z,7.65
2017-10-17T07:22:46.784Z,6.98
2017-10-17T07:23:46.817Z,7.17
2017-10-17T07:24:46.853Z,6.30
2017-10-17T07:25:46.889Z,6.30
2017-10-17T07:26:46.914Z,6.98
2017-10-17T07:27:46.948Z,7.65
2017-10-17T07:28:46.982Z,8.03
2017-10-17T07:29:47.013Z,8.70
2017-10-17T07:30:47.047Z,7.26
2017-10-17T07:31:47.080Z,8.03
2017-10-17T07:32:47.113Z,8.31
2017-10-17T07:33:47.146Z,7.74
2017-10-17T07:34:47.180Z,7.26
2017-10-17T07:35:47.218Z,5.54
2017-10-17T07:36:47.246Z,5.54
2017-10-17T07:37:47.298Z,5.44
2017-10-17T07:38:47.313Z,6.87
2017-10-17T07:39:47.347Z,6.97
2017-10-17T07:40:47.382Z,7.06
2017-10-17T07:41:47.414Z,7.35
2017-10-17T07:42:47.447Z,7.82
2017-10-17T07:43:47.481Z,8.01
2017-10-17T07:44:47.515Z,8.20
2017-10-17T07:45:47.549Z,8.97
2017-10-17T07:46:47.583Z,9.54
2017-10-17T07:47:47.617Z,9.92
2017-10-17T07:48:47.650Z,9.83
2017-10-17T07:49:47.684Z,8.31
2017-10-17T07:50:47.719Z,8.31
2017-10-17T07:51:47.754Z,9.56
2017-10-17T07:52:47.787Z,9.17
2017-10-17T07:53:47.820Z,8.22
2017-10-17T07:54:47.870Z,7.45
2017-10-17T07:55:47.888Z,7.26
2017-10-17T07:56:47.924Z,7.44
2017-10-17T07:57:47.956Z,8.01
2017-10-17T07:58:47.990Z,8.87
2017-10-17T07:59:48.025Z,8.97
2017-10-17T08:00:48.059Z,9.16
2017-10-17T08:01:48.093Z,9.82
2017-10-17T08:02:48.128Z,9.92
2017-10-17T08:03:48.171Z,9.82
2017-10-17T08:04:48.197Z,10.20
2017-10-17T08:05:48.230Z,9.82
2017-10-17T08:06:48.264Z,9.53
2017-10-17T08:07:48.300Z,9.92
2017-10-17T08:08:48.334Z,10.20
2017-10-17T08:09:48.367Z,11.25
2017-10-17T08:10:48.409Z,11.44
2017-10-17T08:11:48.437Z,11.83
2017-10-17T08:12:48.470Z,10.97
2017-10-17T08:13:48.505Z,10.88
2017-10-17T08:14:48.540Z,10.58
2017-10-17T08:15:48.575Z,10.87
2017-10-17T08:16:48.610Z,10.11
2017-10-17T08:17:48.643Z,10.68
2017-10-17T08:18:48.678Z,10.96
2017-10-17T08:19:48.713Z,10.49
2017-10-17T08:20:48.749Z,10.39
2017-10-17T08:21:48.782Z,10.01
2017-10-17T08:22:48.817Z,9.72
2017-10-17T08:23:48.853Z,10.11
2017-10-17T08:24:48.887Z,10.11
2017-10-17T08:25:48.921Z,10.30
2017-10-17T08:26:48.956Z,9.74
2017-10-17T08:27:48.997Z,9.45
2017-10-17T08:28:49.026Z,9.27
2017-10-17T08:29:49.060Z,9.07
2017-10-17T08:30:49.096Z,10.22
2017-10-17T08:31:49.131Z,10.13
2017-10-17T08:32:49.165Z,10.52
2017-10-17T08:33:49.202Z,10.42
2017-10-17T08:34:49.236Z,9.37
2017-10-17T08:35:49.271Z,9.56
2017-10-17T08:36:49.306Z,9.66
2017-10-17T08:37:49.341Z,9.66
2017-10-17T08:38:49.377Z,10.33
2017-10-17T08:39:49.414Z,10.23
2017-10-17T08:40:49.449Z,10.52
2017-10-17T08:41:49.484Z,10.71
2017-10-17T08:42:49.519Z,10.90
2017-10-17T08:43:49.555Z,10.61
2017-10-17T08:44:49.592Z,11.57
2017-10-17T08:45:49.626Z,12.32
2017-10-17T08:46:49.664Z,14.43
2017-10-17T08:47:49.700Z,14.62
2017-10-17T08:48:49.735Z,15.19
2017-10-17T08:49:49.771Z,16.61
2017-10-17T08:50:49.808Z,16.42
2017-10-17T08:51:49.844Z,17.38
2017-10-17T08:52:49.880Z,17.27
2017-10-17T08:53:49.916Z,16.69
2017-10-17T08:54:49.951Z,16.60
2017-10-17T08:55:49.988Z,16.32
2017-10-17T08:56:50.025Z,16.61
2017-10-17T08:57:50.060Z,16.13
2017-10-17T08:58:50.110Z,16.03
2017-10-17T08:59:50.133Z,16.71
2017-10-17T09:00:50.169Z,16.80
2017-10-17T09:01:50.204Z,17.08
2017-10-17T09:02:50.240Z,18.42
2017-10-17T09:03:50.278Z,18.90
2017-10-17T09:04:50.314Z,19.28
2017-10-17T09:05:50.349Z,19.84
2017-10-17T09:06:50.386Z,20.03
2017-10-17T09:07:50.436Z,20.50
2017-10-17T09:08:50.458Z,21.36
2017-10-17T09:09:50.495Z,22.31
2017-10-17T09:10:50.532Z,22.31
2017-10-17T09:11:50.568Z,22.60
2017-10-17T09:12:50.604Z,21.84
2017-10-17T09:13:50.641Z,21.38
2017-10-17T09:14:50.677Z,21.39
2017-10-17T09:15:50.718Z,20.63
2017-10-17T09:16:50.750Z,20.63
2017-10-17T09:17:50.787Z,21.20
2017-10-17T09:18:50.823Z,21.21
2017-10-17T09:19:50.862Z,20.63
2017-10-17T09:20:50.901Z,20.52
2017-10-17T09:21:50.933Z,21.77
2017-10-17T09:22:50.969Z,22.25
2017-10-17T09:23:51.008Z,20.53
2017-10-17T09:24:51.044Z,20.06
2017-10-17T09:25:51.085Z,20.26
2017-10-17T09:26:51.118Z,19.57
2017-10-17T09:27:51.156Z,18.73
2017-10-17T09:28:51.193Z,19.57
2017-10-17T09:29:51.232Z,21.19
2017-10-17T09:30:51.266Z,22.61
2017-10-17T09:31:51.304Z,24.22
2017-10-17T09:32:51.342Z,25.07
2017-10-17T09:33:51.378Z,25.27
2017-10-17T09:34:51.416Z,25.46
2017-10-17T09:35:51.454Z,25.83
2017-10-17T09:36:51.492Z,27.18
2017-10-17T09:37:51.528Z,26.32
2017-10-17T09:38:51.567Z,25.56
2017-10-17T09:39:51.605Z,25.85
2017-10-17T09:40:51.640Z,23.96
2017-10-17T09:41:51.684Z,23.30
2017-10-17T09:42:51.716Z,21.87
2017-10-17T09:43:51.753Z,21.68
2017-10-17T09:44:51.791Z,21.68
2017-10-17T09:45:51.827Z,21.87
2017-10-17T09:46:51.864Z,22.33
2017-10-17T09:47:51.903Z,23.29
2017-10-17T09:48:51.941Z,23.30
2017-10-17T09:49:51.978Z,22.91
2017-10-17T09:50:52.016Z,20.43
2017-10-17T09:51:52.056Z,20.33
2017-10-17T09:52:52.090Z,19.74
2017-10-17T09:53:52.128Z,18.60
2017-10-17T09:54:52.167Z,19.94
2017-10-17T09:55:52.204Z,22.13
2017-10-17T09:56:52.242Z,23.55
2017-10-17T09:57:52.280Z,23.17
2017-10-17T09:58:52.317Z,22.79
2017-10-17T09:59:52.355Z,22.68
2017-10-17T10:00:52.393Z,21.54
2017-10-17T10:01:52.430Z,21.83
2017-10-17T10:02:52.468Z,21.92
2017-10-17T10:03:52.507Z,22.40
2017-10-17T10:04:52.544Z,22.78
2017-10-17T10:05:52.581Z,22.68
2017-10-17T10:06:52.619Z,23.54
2017-10-17T10:07:52.656Z,23.34
2017-10-17T10:08:52.697Z,23.53
2017-10-17T10:09:52.732Z,24.10
2017-10-17T10:10:52.770Z,24.49
2017-10-17T10:11:52.807Z,24.30
2017-10-17T10:12:52.845Z,24.02
2017-10-17T10:13:52.881Z,24.49
2017-10-17T10:14:52.922Z,24.78
2017-10-17T10:15:52.957Z,25.46
2017-10-17T10:16:52.994Z,22.60
2017-10-17T10:17:53.032Z,20.21
2017-10-17T10:18:53.069Z,19.93
2017-10-17T10:19:53.107Z,21.55
2017-10-17T10:20:53.146Z,21.55
2017-10-17T10:21:53.181Z,21.94
2017-10-17T10:22:53.220Z,21.09
2017-10-17T10:23:53.257Z,20.04
2017-10-17T10:24:53.296Z,19.57
2017-10-17T10:25:53.332Z,20.03
2017-10-17T10:26:53.371Z,20.31
2017-10-17T10:27:53.409Z,21.37
2017-10-17T10:28:53.446Z,20.32
2017-10-17T10:29:53.482Z,20.23
2017-10-17T10:30:53.522Z,20.31
2017-10-17T10:31:53.560Z,21.84
2017-10-17T10:32:53.598Z,22.31
2017-10-17T10:33:53.636Z,23.08
2017-10-17T10:34:53.673Z,23.93
2017-10-17T10:35:53.712Z,22.50
2017-10-17T10:36:53.750Z,20.50
2017-10-17T10:37:53.789Z,21.74
2017-10-17T10:38:53.827Z,23.75
2017-10-17T10:39:53.865Z,23.38
2017-10-17T10:40:53.903Z,22.52
2017-10-17T10:41:53.940Z,21.75
2017-10-17T10:42:53.977Z,22.24
2017-10-17T10:43:54.017Z,21.18
2017-10-17T10:44:54.056Z,21.37
2017-10-17T10:45:54.093Z,23.47
2017-10-17T10:46:54.133Z,23.94
2017-10-17T10:47:54.171Z,21.56
2017-10-17T10:48:54.209Z,20.03
2017-10-17T10:49:54.247Z,21.28
2017-10-17T10:50:54.286Z,20.43
2017-10-17T10:51:54.325Z,19.38
2017-10-17T10:52:54.363Z,18.73
2017-10-17T10:53:54.402Z,18.91
2017-10-17T10:54:54.440Z,19.84
2017-10-17T10:55:54.480Z,21.64
2017-10-17T10:56:54.519Z,21.56
2017-10-17T10:57:54.557Z,21.86
2017-10-17T10:58:54.596Z,21.58
2017-10-17T10:59:54.636Z,21.01
2017-10-17T11:00:54.675Z,20.64
2017-10-17T11:01:54.713Z,19.49
2017-10-17T11:02:54.753Z,19.68
2017-10-17T11:03:54.791Z,20.26
2017-10-17T11:04:54.831Z,20.65
2017-10-17T11:05:54.870Z,20.45
2017-10-17T11:06:54.910Z,20.43
2017-10-17T11:07:54.949Z,20.92
2017-10-17T11:08:54.989Z,21.48
2017-10-17T11:09:55.028Z,22.43
2017-10-17T11:10:55.068Z,23.66
2017-10-17T11:11:55.107Z,24.79
2017-10-17T11:12:55.148Z,25.83
2017-10-17T11:13:55.186Z,26.13
2017-10-17T11:14:55.234Z,26.70
2017-10-17T11:15:55.264Z,27.08
2017-10-17T11:16:55.305Z,26.70
2017-10-17T11:17:55.344Z,25.46
2017-10-17T11:18:55.383Z,25.56
2017-10-17T11:19:55.423Z,25.19
2017-10-17T11:20:55.463Z,24.05
2017-10-17T11:21:55.501Z,23.57
2017-10-17T11:22:55.540Z,24.23
2017-10-17T11:23:55.580Z,25.18
2017-10-17T11:24:55.619Z,27.18
2017-10-17T11:25:55.658Z,27.47
2017-10-17T11:26:55.696Z,27.38
2017-10-17T11:27:55.736Z,26.90
2017-10-17T11:28:55.775Z,25.67
2017-10-17T11:29:55.813Z,26.24
2017-10-17T11:30:55.852Z,26.44
2017-10-17T11:31:55.892Z,26.73
2017-10-17T11:32:55.931Z,26.73
2017-10-17T11:33:55.969Z,26.81
2017-10-17T11:34:56.008Z,26.90
2017-10-17T11:35:56.048Z,27.47
2017-10-17T11:36:56.087Z,27.84
2017-10-17T11:37:56.124Z,28.99
2017-10-17T11:38:56.164Z,28.62
2017-10-17T11:39:56.201Z,27.76
2017-10-17T11:40:56.291Z,28.62
2017-10-17T11:41:56.278Z,28.24
2017-10-17T11:42:56.318Z,27.86
2017-10-17T11:43:56.361Z,28.05
2017-10-17T11:44:56.395Z,28.13
2017-10-17T11:45:56.432Z,29.00
2017-10-17T11:46:56.471Z,29.00
2017-10-17T11:47:56.509Z,28.72
2017-10-17T11:48:56.548Z,28.81
2017-10-17T11:49:56.585Z,28.16
2017-10-17T11:50:56.625Z,27.95
2017-10-17T11:51:56.714Z,28.62
2017-10-17T11:52:56.702Z,29.59
2017-10-17T11:53:56.740Z,29.11
2017-10-17T11:54:56.778Z,28.25
2017-10-17T11:55:56.818Z,27.68
2017-10-17T11:56:56.856Z,27.50
2017-10-17T11:57:56.944Z,27.78
2017-10-17T11:58:56.933Z,27.76
2017-10-17T11:59:56.972Z,29.67
2017-10-17T12:00:57.012Z,29.85
2017-10-17T12:01:57.049Z,29.58
2017-10-17T12:02:57.089Z,29.67
2017-10-17T12:03:57.177Z,29.96
2017-10-17T12:04:57.166Z,28.06
2017-10-17T12:05:57.205Z,26.35
2017-10-17T12:06:57.244Z,27.03
2017-10-17T12:07:57.282Z,26.64
2017-10-17T12:08:57.322Z,26.93
2017-10-17T12:09:57.358Z,26.84
2017-10-17T12:10:57.411Z,27.03
2017-10-17T12:11:57.437Z,27.78
2017-10-17T12:12:57.476Z,28.83
2017-10-17T12:13:57.513Z,28.54
2017-10-17T12:14:57.552Z,28.35
2017-10-17T12:15:57.590Z,27.97
2017-10-17T12:16:57.630Z,27.12
2017-10-17T12:17:57.668Z,26.93
2017-10-17T12:18:57.706Z,27.41
2017-10-17T12:19:57.745Z,27.79
2017-10-17T12:20:57.784Z,27.89
2017-10-17T12:21:57.826Z,28.08
2017-10-17T12:22:57.860Z,28.16
2017-10-17T12:23:57.902Z,29.11
2017-10-17T12:24:57.939Z,29.59
2017-10-17T12:25:57.976Z,29.58
2017-10-17T12:26:58.015Z,30.71
2017-10-17T12:27:58.054Z,30.90
2017-10-17T12:28:58.100Z,31.09
2017-10-17T12:29:58.129Z,31.09
2017-10-17T12:30:58.168Z,32.23
2017-10-17T12:31:58.223Z,31.95
2017-10-17T12:32:58.244Z,31.66
2017-10-17T12:33:58.282Z,32.52
2017-10-17T12:34:58.319Z,32.15
2017-10-17T12:35:58.357Z,31.48
2017-10-17T12:36:58.396Z,31.95
2017-10-17T12:37:58.432Z,31.56
2017-10-17T12:38:58.471Z,32.04
2017-10-17T12:39:58.510Z,31.47
2017-10-17T12:40:58.545Z,31.58
2017-10-17T12:41:58.581Z,31.21
2017-10-17T12:42:58.620Z,30.43
2017-10-17T12:43:58.659Z,30.63
2017-10-17T12:44:58.696Z,31.10
2017-10-17T12:45:58.730Z,31.66
2017-10-17T12:46:58.769Z,31.56
2017-10-17T12:47:58.808Z,32.82
2017-10-17T12:48:58.844Z,32.42
2017-10-17T12:49:58.880Z,32.61
2017-10-17T12:50:58.917Z,32.32
2017-10-17T12:51:58.954Z,32.81
2017-10-17T12:52:58.992Z,33.18
2017-10-17T12:53:59.036Z,32.42
2017-10-17T12:54:59.066Z,33.00
2017-10-17T12:55:59.129Z,32.81
2017-10-17T12:56:59.151Z,33.09
2017-10-17T12:57:59.176Z,33.29
2017-10-17T12:58:59.214Z,33.11
2017-10-17T12:59:59.250Z,32.73
2017-10-17T13:00:59.287Z,33.18
2017-10-17T13:01:59.324Z,32.81